Wendel, West Virginia
Current Conditions -  °F | °C
As of 10:53 AM on Monday 24 Nov 2014 (Local Time) from KCKB Reporting Station
Scattered Clouds Scattered Clouds  
Wind Chill: 20°   Ceiling: Unl
Heat Index: 20°   Visibility: 10mi
Dew Point:   Wind: 23mph
Humidity: 43%   Direction: 210°SSW
Pressure: 29.51"   Gusts: 37mph
Location:  39.2753°N, 80.1249°W
Report Text: KCKB 241553Z 21020G32KT 10SM SCT070 20/07 A2951 RMK AO2 PK WND 19036/1519 SLP983 T02000072
Loading
Personal Weather Stations






























Interactive Weather Map New forecast layout! Learn more

10-Day Weather Forecast

Advertisements
Track Severe Weather on mobile